createdAt,value
2022-10-23T00:00:24.638Z,1011.90
2022-10-23T00:01:24.553Z,1011.88
2022-10-23T00:02:24.602Z,1011.85
2022-10-23T00:03:24.546Z,1011.87
2022-10-23T00:04:24.539Z,1011.86
2022-10-23T00:05:24.548Z,1011.87
2022-10-23T00:06:24.535Z,1011.87
2022-10-23T00:07:24.549Z,1011.85
2022-10-23T00:08:24.539Z,1011.87
2022-10-23T00:09:24.535Z,1011.86
2022-10-23T00:10:24.522Z,1011.88
2022-10-23T00:11:24.536Z,1011.88
2022-10-23T00:12:24.532Z,1011.91
2022-10-23T00:13:24.527Z,1011.91
2022-10-23T00:14:24.524Z,1011.92
2022-10-23T00:15:24.509Z,1011.92
2022-10-23T00:16:24.540Z,1011.91
2022-10-23T00:17:24.504Z,1011.96
2022-10-23T00:18:24.501Z,1011.98
2022-10-23T00:19:24.504Z,1011.95
2022-10-23T00:20:24.502Z,1012.01
2022-10-23T00:21:24.515Z,1012.03
2022-10-23T00:22:24.490Z,1012.01
2022-10-23T00:23:24.509Z,1012.01
2022-10-23T00:24:24.526Z,1012.04
2022-10-23T00:25:24.487Z,1012.04
2022-10-23T00:26:24.504Z,1012.05
2022-10-23T00:27:24.482Z,1012.07
2022-10-23T00:28:24.473Z,1012.07
2022-10-23T00:29:24.466Z,1012.07
2022-10-23T00:30:24.474Z,1012.13
2022-10-23T00:31:24.464Z,1012.09
2022-10-23T00:32:24.506Z,1012.05
2022-10-23T00:33:24.512Z,1012.09
2022-10-23T00:34:24.465Z,1012.07
2022-10-23T00:35:24.459Z,1012.08
2022-10-23T00:36:24.444Z,1012.09
2022-10-23T00:37:24.452Z,1012.10
2022-10-23T00:38:24.460Z,1012.10
2022-10-23T00:39:24.442Z,1012.08
2022-10-23T00:40:24.443Z,1012.10
2022-10-23T00:41:24.446Z,1012.06
2022-10-23T00:42:24.451Z,1012.09
2022-10-23T00:43:24.444Z,1012.07
2022-10-23T00:44:24.446Z,1012.10
2022-10-23T00:45:24.424Z,1012.07
2022-10-23T00:46:24.423Z,1012.06
2022-10-23T00:47:24.422Z,1012.09
2022-10-23T00:48:24.415Z,1012.07
2022-10-23T00:49:24.411Z,1012.09
2022-10-23T00:50:24.410Z,1012.07
2022-10-23T00:51:24.406Z,1012.06
2022-10-23T00:52:24.396Z,1012.07
2022-10-23T00:53:24.402Z,1012.07
2022-10-23T00:54:25.204Z,1012.04
2022-10-23T00:55:24.406Z,1012.10
2022-10-23T00:56:24.392Z,1012.10
2022-10-23T00:57:24.460Z,1012.09
2022-10-23T00:58:24.392Z,1012.10
2022-10-23T00:59:24.402Z,1012.14
2022-10-23T01:00:24.384Z,1012.09
2022-10-23T01:01:24.471Z,1012.09
2022-10-23T01:02:24.447Z,1012.12
2022-10-23T01:03:24.378Z,1012.16
2022-10-23T01:04:24.379Z,1012.09
2022-10-23T01:05:24.402Z,1012.09
2022-10-23T01:06:24.373Z,1012.07
2022-10-23T01:07:24.366Z,1012.06
2022-10-23T01:08:24.364Z,1012.07
2022-10-23T01:09:24.355Z,1012.08
2022-10-23T01:10:24.351Z,1012.09
2022-10-23T01:11:24.373Z,1012.08
2022-10-23T01:12:24.350Z,1012.13
2022-10-23T01:13:24.355Z,1012.09
2022-10-23T01:14:24.364Z,1012.14
2022-10-23T01:15:24.371Z,1012.09
2022-10-23T01:16:24.356Z,1012.08
2022-10-23T01:17:24.355Z,1012.10
2022-10-23T01:18:24.336Z,1012.11
2022-10-23T01:19:24.330Z,1012.09
2022-10-23T01:20:24.331Z,1012.13
2022-10-23T01:21:24.324Z,1012.15
2022-10-23T01:23:24.327Z,1012.13
2022-10-23T01:24:24.318Z,1012.13
2022-10-23T01:25:24.331Z,1012.16
2022-10-23T01:26:24.318Z,1012.15
2022-10-23T01:27:24.312Z,1012.15
2022-10-23T01:28:24.311Z,1012.11
2022-10-23T01:29:24.311Z,1012.12
2022-10-23T01:30:24.300Z,1012.13
2022-10-23T01:31:24.305Z,1012.17
2022-10-23T01:32:24.300Z,1012.18
2022-10-23T01:33:24.292Z,1012.17
2022-10-23T01:34:24.289Z,1012.16
2022-10-23T01:35:24.296Z,1012.17
2022-10-23T01:36:24.296Z,1012.16
2022-10-23T01:37:24.291Z,1012.18
2022-10-23T01:38:24.305Z,1012.17
2022-10-23T01:39:24.290Z,1012.18
2022-10-23T01:40:24.269Z,1012.17
2022-10-23T01:41:24.279Z,1012.22
2022-10-23T01:42:24.333Z,1012.18
2022-10-23T01:43:24.268Z,1012.18
2022-10-23T01:44:24.270Z,1012.20
2022-10-23T01:45:24.267Z,1012.21
2022-10-23T01:46:24.267Z,1012.22
2022-10-23T01:47:24.259Z,1012.20
2022-10-23T01:48:24.270Z,1012.24
2022-10-23T01:49:24.256Z,1012.21
2022-10-23T01:50:24.246Z,1012.21
2022-10-23T01:51:24.249Z,1012.22
2022-10-23T01:52:24.240Z,1012.21
2022-10-23T01:53:24.241Z,1012.23
2022-10-23T01:54:24.247Z,1012.18
2022-10-23T01:55:24.234Z,1012.22
2022-10-23T01:56:24.232Z,1012.20
2022-10-23T01:57:24.229Z,1012.18
2022-10-23T01:58:24.246Z,1012.16
2022-10-23T01:59:24.240Z,1012.17
2022-10-23T02:00:24.220Z,1012.17
2022-10-23T02:01:24.397Z,1012.18
2022-10-23T02:02:24.320Z,1012.14
2022-10-23T02:03:24.215Z,1012.14
2022-10-23T02:04:24.213Z,1012.15
2022-10-23T02:05:24.207Z,1012.16
2022-10-23T02:06:24.205Z,1012.15
2022-10-23T02:07:24.201Z,1012.14
2022-10-23T02:08:24.200Z,1012.10
2022-10-23T02:09:24.199Z,1012.15
2022-10-23T02:10:24.193Z,1012.09
2022-10-23T02:11:24.186Z,1012.10
2022-10-23T02:12:24.294Z,1012.05
2022-10-23T02:13:24.176Z,1012.06
2022-10-23T02:14:24.179Z,1012.07
2022-10-23T02:15:24.175Z,1012.03
2022-10-23T02:16:24.176Z,1012.10
2022-10-23T02:17:24.163Z,1012.11
2022-10-23T02:18:24.169Z,1012.07
2022-10-23T02:19:24.191Z,1012.06
2022-10-23T02:20:24.152Z,1012.07
2022-10-23T02:21:24.157Z,1012.06
2022-10-23T02:22:24.153Z,1012.06
2022-10-23T02:23:24.151Z,1012.06
2022-10-23T02:24:24.153Z,1012.04
2022-10-23T02:25:24.140Z,1012.05
2022-10-23T02:26:24.141Z,1012.03
2022-10-23T02:27:24.152Z,1012.05
2022-10-23T02:28:24.155Z,1012.05
2022-10-23T02:29:24.145Z,1012.06
2022-10-23T02:30:24.134Z,1012.05
2022-10-23T02:31:24.139Z,1012.03
2022-10-23T02:32:24.123Z,1012.06
2022-10-23T02:33:24.120Z,1012.02
2022-10-23T02:34:24.115Z,1012.05
2022-10-23T02:35:24.116Z,1012.04
2022-10-23T02:36:24.108Z,1012.09
2022-10-23T02:37:24.117Z,1012.06
2022-10-23T02:38:24.117Z,1012.07
2022-10-23T02:39:24.124Z,1012.02
2022-10-23T02:40:24.098Z,1012.03
2022-10-23T02:41:24.090Z,1012.03
2022-10-23T02:42:24.096Z,1012.02
2022-10-23T02:43:24.095Z,1011.99
2022-10-23T02:44:24.093Z,1012.00
2022-10-23T02:45:24.135Z,1012.01
2022-10-23T02:46:24.087Z,1012.00
2022-10-23T02:47:24.087Z,1011.96
2022-10-23T02:48:24.083Z,1012.01
2022-10-23T02:49:24.080Z,1011.97
2022-10-23T02:50:24.086Z,1012.00
2022-10-23T02:51:24.070Z,1011.94
2022-10-23T02:52:24.094Z,1011.98
2022-10-23T02:53:24.068Z,1011.95
2022-10-23T02:54:24.125Z,1011.98
2022-10-23T02:55:24.062Z,1012.01
2022-10-23T02:56:24.059Z,1012.04
2022-10-23T02:57:24.056Z,1012.07
2022-10-23T02:58:24.057Z,1012.01
2022-10-23T02:59:24.070Z,1012.02
2022-10-23T03:00:24.058Z,1012.04
2022-10-23T03:01:24.226Z,1012.01
2022-10-23T03:02:24.562Z,1012.01
2022-10-23T03:03:24.032Z,1012.00
2022-10-23T03:04:24.037Z,1012.00
2022-10-23T03:05:24.025Z,1011.98
2022-10-23T03:06:24.059Z,1011.95
2022-10-23T03:07:24.027Z,1011.94
2022-10-23T03:08:24.031Z,1011.93
2022-10-23T03:09:24.027Z,1011.91
2022-10-23T03:10:24.061Z,1011.90
2022-10-23T03:11:24.024Z,1011.93
2022-10-23T03:12:24.014Z,1011.92
2022-10-23T03:13:24.007Z,1011.94
2022-10-23T03:14:24.003Z,1011.91
2022-10-23T03:15:24.001Z,1011.94
2022-10-23T03:16:23.999Z,1011.90
2022-10-23T03:17:23.993Z,1011.87
2022-10-23T03:18:24.003Z,1011.89
2022-10-23T03:19:23.997Z,1011.91
2022-10-23T03:20:23.998Z,1011.96
2022-10-23T03:21:24.030Z,1011.98
2022-10-23T03:22:23.982Z,1011.95
2022-10-23T03:23:23.980Z,1011.93
2022-10-23T03:24:23.975Z,1011.94
2022-10-23T03:25:23.969Z,1011.94
2022-10-23T03:26:23.963Z,1011.97
2022-10-23T03:27:24.026Z,1011.98
2022-10-23T03:28:23.967Z,1012.00
2022-10-23T03:29:23.979Z,1012.06
2022-10-23T03:30:23.985Z,1012.09
2022-10-23T03:31:23.956Z,1012.01
2022-10-23T03:32:23.952Z,1012.06
2022-10-23T03:33:23.944Z,1012.06
2022-10-23T03:34:23.960Z,1012.04
2022-10-23T03:35:23.964Z,1012.03
2022-10-23T03:36:23.972Z,1012.04
2022-10-23T03:37:23.934Z,1012.02
2022-10-23T03:38:23.934Z,1012.02
2022-10-23T03:39:23.928Z,1011.94
2022-10-23T03:40:23.926Z,1012.01
2022-10-23T03:41:23.923Z,1012.01
2022-10-23T03:42:23.915Z,1012.02
2022-10-23T03:43:23.929Z,1012.02
2022-10-23T03:44:23.922Z,1012.04
2022-10-23T03:45:23.931Z,1011.99
2022-10-23T03:46:24.880Z,1012.01
2022-10-23T03:47:23.910Z,1012.00
2022-10-23T03:48:23.900Z,1012.00
2022-10-23T03:49:23.919Z,1012.06
2022-10-23T03:50:24.008Z,1012.04
2022-10-23T03:51:23.898Z,1012.09
2022-10-23T03:53:23.884Z,1012.06
2022-10-23T03:54:23.905Z,1012.08
2022-10-23T03:55:23.876Z,1012.09
2022-10-23T03:56:23.877Z,1012.11
2022-10-23T03:57:23.877Z,1012.09
2022-10-23T03:58:23.875Z,1012.07
2022-10-23T03:59:23.929Z,1012.08
2022-10-23T04:00:23.876Z,1012.11
2022-10-23T04:01:24.015Z,1012.09
2022-10-23T04:02:23.942Z,1012.11
2022-10-23T04:03:23.893Z,1012.09
2022-10-23T04:04:23.856Z,1012.08
2022-10-23T04:05:23.853Z,1012.08
2022-10-23T04:06:23.846Z,1012.13
2022-10-23T04:07:23.845Z,1012.14
2022-10-23T04:08:23.857Z,1012.15
2022-10-23T04:09:23.878Z,1012.14
2022-10-23T04:10:23.845Z,1012.16
2022-10-23T04:11:23.835Z,1012.15
2022-10-23T04:12:23.833Z,1012.14
2022-10-23T04:13:23.827Z,1012.15
2022-10-23T04:14:23.835Z,1012.14
2022-10-23T04:15:23.817Z,1012.13
2022-10-23T04:16:23.816Z,1012.15
2022-10-23T04:17:23.826Z,1012.07
2022-10-23T04:18:23.810Z,1012.11
2022-10-23T04:19:23.829Z,1012.10
2022-10-23T04:20:23.816Z,1012.08
2022-10-23T04:21:23.808Z,1012.08
2022-10-23T04:22:26.087Z,1012.06
2022-10-23T04:23:23.807Z,1012.06
2022-10-23T04:24:23.797Z,1012.06
2022-10-23T04:25:23.790Z,1012.05
2022-10-23T04:26:23.814Z,1012.07
2022-10-23T04:27:23.801Z,1012.05
2022-10-23T04:28:23.780Z,1012.03
2022-10-23T04:29:23.792Z,1012.04
2022-10-23T04:30:23.803Z,1012.03
2022-10-23T04:31:23.770Z,1012.04
2022-10-23T04:32:23.761Z,1012.01
2022-10-23T04:33:23.761Z,1012.03
2022-10-23T04:34:23.759Z,1011.98
2022-10-23T04:35:23.757Z,1011.99
2022-10-23T04:36:23.748Z,1012.03
2022-10-23T04:37:23.768Z,1012.08
2022-10-23T04:38:23.776Z,1012.05
2022-10-23T04:39:23.787Z,1012.06
2022-10-23T04:40:23.795Z,1012.07
2022-10-23T04:41:23.730Z,1012.06
2022-10-23T04:42:23.762Z,1012.10
2022-10-23T04:43:23.743Z,1012.06
2022-10-23T04:44:23.736Z,1012.05
2022-10-23T04:45:23.724Z,1012.08
2022-10-23T04:46:23.725Z,1012.06
2022-10-23T04:47:23.711Z,1012.11
2022-10-23T04:48:25.662Z,1012.08
2022-10-23T04:49:23.715Z,1012.06
2022-10-23T04:50:23.705Z,1012.07
2022-10-23T04:51:23.704Z,1012.06
2022-10-23T04:52:23.703Z,1012.05
2022-10-23T04:53:23.690Z,1012.05
2022-10-23T04:54:23.718Z,1012.05
2022-10-23T04:55:23.685Z,1012.08
2022-10-23T04:56:23.685Z,1012.05
2022-10-23T04:57:23.720Z,1012.12
2022-10-23T04:58:23.718Z,1012.09
2022-10-23T04:59:23.674Z,1012.05
2022-10-23T05:00:23.674Z,1012.11
2022-10-23T05:01:23.755Z,1012.09
2022-10-23T05:02:23.662Z,1012.13
2022-10-23T05:03:23.656Z,1012.14
2022-10-23T05:04:23.670Z,1012.10
2022-10-23T05:05:23.655Z,1012.12
2022-10-23T05:06:23.662Z,1012.12
2022-10-23T05:07:23.671Z,1012.07
2022-10-23T05:08:23.669Z,1012.07
2022-10-23T05:09:23.652Z,1012.04
2022-10-23T05:10:23.630Z,1012.04
2022-10-23T05:11:23.639Z,1012.02
2022-10-23T05:12:23.635Z,1012.03
2022-10-23T05:13:23.621Z,1012.00
2022-10-23T05:14:23.627Z,1012.04
2022-10-23T05:15:23.634Z,1011.99
2022-10-23T05:16:23.616Z,1011.94
2022-10-23T05:17:23.626Z,1012.02
2022-10-23T05:18:23.604Z,1011.96
2022-10-23T05:19:24.435Z,1012.00
2022-10-23T05:20:23.608Z,1011.98
2022-10-23T05:21:23.598Z,1012.01
2022-10-23T05:22:23.594Z,1012.01
2022-10-23T05:23:23.583Z,1012.03
2022-10-23T05:24:23.591Z,1012.01
2022-10-23T05:25:23.597Z,1012.00
2022-10-23T05:26:23.586Z,1012.04
2022-10-23T05:27:23.635Z,1012.04
2022-10-23T05:28:23.584Z,1012.01
2022-10-23T05:29:23.573Z,1011.99
2022-10-23T05:30:23.576Z,1012.01
2022-10-23T05:31:23.590Z,1012.04
2022-10-23T05:32:23.565Z,1012.05
2022-10-23T05:33:23.566Z,1012.06
2022-10-23T05:34:23.577Z,1012.06
2022-10-23T05:35:23.548Z,1012.03
2022-10-23T05:36:23.571Z,1012.02
2022-10-23T05:37:23.554Z,1012.06
2022-10-23T05:38:23.539Z,1012.03
2022-10-23T05:39:23.544Z,1012.11
2022-10-23T05:40:23.566Z,1012.14
2022-10-23T05:41:23.547Z,1012.12
2022-10-23T05:42:23.530Z,1012.10
2022-10-23T05:43:23.526Z,1012.11
2022-10-23T05:44:23.534Z,1012.10
2022-10-23T05:45:23.512Z,1012.12
2022-10-23T05:46:23.543Z,1012.14
2022-10-23T05:47:23.521Z,1012.10
2022-10-23T05:48:34.290Z,1012.14
2022-10-23T05:49:23.514Z,1012.19
2022-10-23T05:50:23.537Z,1012.18
2022-10-23T05:51:23.502Z,1012.14
2022-10-23T05:52:23.496Z,1012.19
2022-10-23T05:53:23.485Z,1012.23
2022-10-23T05:54:23.497Z,1012.19
2022-10-23T05:55:23.473Z,1012.17
2022-10-23T05:56:23.483Z,1012.19
2022-10-23T05:57:23.470Z,1012.19
2022-10-23T05:58:23.474Z,1012.17
2022-10-23T05:59:23.507Z,1012.16
2022-10-23T06:00:23.470Z,1012.17
2022-10-23T06:01:23.527Z,1012.19
2022-10-23T06:02:23.531Z,1012.13
2022-10-23T06:03:23.453Z,1012.14
2022-10-23T06:04:23.464Z,1012.12
2022-10-23T06:05:23.451Z,1012.12
2022-10-23T06:06:23.466Z,1012.10
2022-10-23T06:07:23.443Z,1012.07
2022-10-23T06:08:23.435Z,1012.06
2022-10-23T06:09:23.439Z,1012.08
2022-10-23T06:10:23.433Z,1012.04
2022-10-23T06:11:23.442Z,1012.07
2022-10-23T06:12:23.437Z,1012.08
2022-10-23T06:13:23.417Z,1012.07
2022-10-23T06:14:23.430Z,1012.07
2022-10-23T06:15:23.439Z,1012.11
2022-10-23T06:16:23.407Z,1012.13
2022-10-23T06:17:23.397Z,1012.13
2022-10-23T06:18:23.436Z,1012.11
2022-10-23T06:19:23.399Z,1012.12
2022-10-23T06:20:26.560Z,1012.11
2022-10-23T06:21:23.394Z,1012.08
2022-10-23T06:22:23.390Z,1012.09
2022-10-23T06:23:23.388Z,1012.07
2022-10-23T06:24:23.384Z,1012.12
2022-10-23T06:25:23.397Z,1012.08
2022-10-23T06:26:23.369Z,1012.04
2022-10-23T06:27:23.381Z,1012.04
2022-10-23T06:28:23.385Z,1012.04
2022-10-23T06:29:23.370Z,1012.03
2022-10-23T06:30:23.429Z,1012.04
2022-10-23T06:31:23.359Z,1012.04
2022-10-23T06:32:23.352Z,1012.04
2022-10-23T06:33:23.352Z,1012.02
2022-10-23T06:34:23.346Z,1012.01
2022-10-23T06:35:23.364Z,1012.01
2022-10-23T06:36:23.348Z,1012.04
2022-10-23T06:37:23.332Z,1012.03
2022-10-23T06:38:23.343Z,1012.02
2022-10-23T06:39:25.183Z,1012.06
2022-10-23T06:40:23.326Z,1012.07
2022-10-23T06:41:23.323Z,1012.10
2022-10-23T06:42:23.315Z,1012.08
2022-10-23T06:43:23.330Z,1012.10
2022-10-23T06:44:23.334Z,1012.13
2022-10-23T06:45:23.315Z,1012.16
2022-10-23T06:46:23.309Z,1012.22
2022-10-23T06:47:23.308Z,1012.22
2022-10-23T06:48:23.306Z,1012.27
2022-10-23T06:49:23.297Z,1012.24
2022-10-23T06:50:23.296Z,1012.24
2022-10-23T06:51:23.298Z,1012.26
2022-10-23T06:52:45.311Z,1012.27
2022-10-23T06:53:23.309Z,1012.30
2022-10-23T06:54:23.281Z,1012.29
2022-10-23T06:55:23.369Z,1012.30
2022-10-23T06:56:23.270Z,1012.32
2022-10-23T06:57:23.273Z,1012.35
2022-10-23T06:58:23.263Z,1012.35
2022-10-23T06:59:23.281Z,1012.39
2022-10-23T07:00:23.261Z,1012.38
2022-10-23T07:01:23.438Z,1012.34
2022-10-23T07:02:23.278Z,1012.32
2022-10-23T07:03:23.268Z,1012.33
2022-10-23T07:04:23.248Z,1012.28
2022-10-23T07:05:23.251Z,1012.29
2022-10-23T07:06:23.254Z,1012.24
2022-10-23T07:07:23.240Z,1012.23
2022-10-23T07:08:23.233Z,1012.17
2022-10-23T07:09:23.232Z,1012.17
2022-10-23T07:10:23.233Z,1012.16
2022-10-23T07:11:23.232Z,1012.14
2022-10-23T07:12:23.233Z,1012.15
2022-10-23T07:13:23.226Z,1012.21
2022-10-23T07:14:23.226Z,1012.19
2022-10-23T07:15:23.223Z,1012.20
2022-10-23T07:16:23.222Z,1012.27
2022-10-23T07:17:23.210Z,1012.27
2022-10-23T07:18:23.272Z,1012.30
2022-10-23T07:19:23.208Z,1012.32
2022-10-23T07:20:23.240Z,1012.28
2022-10-23T07:21:23.196Z,1012.24
2022-10-23T07:22:23.193Z,1012.28
2022-10-23T07:23:23.206Z,1012.25
2022-10-23T07:24:23.213Z,1012.27
2022-10-23T07:25:23.195Z,1012.25
2022-10-23T07:26:23.209Z,1012.29
2022-10-23T07:27:23.213Z,1012.32
2022-10-23T07:28:23.209Z,1012.28
2022-10-23T07:29:23.179Z,1012.29
2022-10-23T07:30:23.181Z,1012.26
2022-10-23T07:31:25.770Z,1012.26
2022-10-23T07:32:23.183Z,1012.26
2022-10-23T07:33:23.183Z,1012.23
2022-10-23T07:34:23.194Z,1012.25
2022-10-23T07:35:23.182Z,1012.23
2022-10-23T07:36:23.181Z,1012.26
2022-10-23T07:37:23.194Z,1012.23
2022-10-23T07:38:23.150Z,1012.23
2022-10-23T07:39:23.160Z,1012.22
2022-10-23T07:40:23.149Z,1012.24
2022-10-23T07:41:23.147Z,1012.23
2022-10-23T07:42:23.137Z,1012.27
2022-10-23T07:43:23.212Z,1012.24
2022-10-23T07:44:25.662Z,1012.24
2022-10-23T07:45:23.159Z,1012.21
2022-10-23T07:46:23.137Z,1012.25
2022-10-23T07:47:23.154Z,1012.28
2022-10-23T07:48:23.141Z,1012.27
2022-10-23T07:49:23.138Z,1012.27
2022-10-23T07:50:23.119Z,1012.29
2022-10-23T07:51:23.120Z,1012.35
2022-10-23T07:52:23.117Z,1012.36
2022-10-23T07:53:23.119Z,1012.36
2022-10-23T07:54:23.130Z,1012.32
2022-10-23T07:55:23.135Z,1012.35
2022-10-23T07:56:23.119Z,1012.36
2022-10-23T07:57:23.126Z,1012.35
2022-10-23T07:58:23.140Z,1012.37
2022-10-23T07:59:23.161Z,1012.33
2022-10-23T08:01:23.167Z,1012.30
2022-10-23T08:02:23.180Z,1012.29
2022-10-23T08:03:23.139Z,1012.35
2022-10-23T08:04:23.167Z,1012.35
2022-10-23T08:05:23.195Z,1012.35
2022-10-23T08:06:23.164Z,1012.37
2022-10-23T08:07:23.138Z,1012.34
2022-10-23T08:08:23.151Z,1012.33
2022-10-23T08:09:23.147Z,1012.31
2022-10-23T08:10:23.156Z,1012.30
2022-10-23T08:11:23.168Z,1012.34
2022-10-23T08:12:23.201Z,1012.35
2022-10-23T08:13:23.162Z,1012.35
2022-10-23T08:14:23.179Z,1012.40
2022-10-23T08:15:23.186Z,1012.42
2022-10-23T08:16:23.186Z,1012.40
2022-10-23T08:17:25.189Z,1012.43
2022-10-23T08:18:23.199Z,1012.44
2022-10-23T08:19:23.206Z,1012.39
2022-10-23T08:20:23.237Z,1012.43
2022-10-23T08:21:23.211Z,1012.36
2022-10-23T08:22:23.232Z,1012.36
2022-10-23T08:23:23.231Z,1012.32
2022-10-23T08:24:23.234Z,1012.31
2022-10-23T08:25:24.927Z,1012.32
2022-10-23T08:26:23.245Z,1012.35
2022-10-23T08:27:23.254Z,1012.36
2022-10-23T08:28:23.265Z,1012.38
2022-10-23T08:29:23.271Z,1012.39
2022-10-23T08:30:23.291Z,1012.36
2022-10-23T08:31:23.277Z,1012.39
2022-10-23T08:32:23.293Z,1012.42
2022-10-23T08:33:23.299Z,1012.39
2022-10-23T08:34:23.305Z,1012.44
2022-10-23T08:35:23.310Z,1012.42
2022-10-23T08:36:23.319Z,1012.40
2022-10-23T08:37:23.326Z,1012.34
2022-10-23T08:38:23.338Z,1012.38
2022-10-23T08:39:23.335Z,1012.37
2022-10-23T08:40:23.350Z,1012.36
2022-10-23T08:41:23.350Z,1012.40
2022-10-23T08:42:23.364Z,1012.38
2022-10-23T08:43:23.371Z,1012.37
2022-10-23T08:44:23.379Z,1012.33
2022-10-23T08:45:23.396Z,1012.32
2022-10-23T08:46:23.406Z,1012.28
2022-10-23T08:47:23.402Z,1012.32
2022-10-23T08:48:23.404Z,1012.30
2022-10-23T08:49:23.416Z,1012.25
2022-10-23T08:50:23.490Z,1012.24
2022-10-23T08:51:23.421Z,1012.23
2022-10-23T08:52:23.433Z,1012.25
2022-10-23T08:53:23.445Z,1012.16
2022-10-23T08:54:23.441Z,1012.20
2022-10-23T08:55:23.459Z,1012.24
2022-10-23T08:56:23.445Z,1012.21
2022-10-23T08:57:23.456Z,1012.23
2022-10-23T08:58:23.457Z,1012.22
2022-10-23T08:59:23.465Z,1012.22
2022-10-23T09:00:23.461Z,1012.19
2022-10-23T09:01:23.599Z,1012.18
2022-10-23T09:02:23.562Z,1012.17
2022-10-23T09:03:23.478Z,1012.16
2022-10-23T09:04:23.518Z,1012.18
2022-10-23T09:05:23.483Z,1012.17
2022-10-23T09:06:23.502Z,1012.21
2022-10-23T09:07:23.527Z,1012.17
2022-10-23T09:08:23.506Z,1012.17
2022-10-23T09:09:23.509Z,1012.19
2022-10-23T09:10:23.498Z,1012.20
2022-10-23T09:11:23.505Z,1012.17
2022-10-23T09:12:23.501Z,1012.21
2022-10-23T09:13:23.517Z,1012.18
2022-10-23T09:14:23.496Z,1012.19
2022-10-23T09:15:23.500Z,1012.18
2022-10-23T09:16:23.503Z,1012.15
2022-10-23T09:17:23.498Z,1012.11
2022-10-23T09:18:23.505Z,1012.09
2022-10-23T09:19:23.507Z,1012.07
2022-10-23T09:20:23.513Z,1012.10
2022-10-23T09:21:23.512Z,1012.05
2022-10-23T09:22:23.516Z,1012.04
2022-10-23T09:23:23.524Z,1012.06
2022-10-23T09:24:23.539Z,1012.05
2022-10-23T09:25:23.522Z,1012.02
2022-10-23T09:26:23.514Z,1012.02
2022-10-23T09:27:23.541Z,1012.04
2022-10-23T09:28:23.516Z,1012.03
2022-10-23T09:29:23.529Z,1012.04
2022-10-23T09:30:23.551Z,1012.04
2022-10-23T09:31:23.540Z,1012.00
2022-10-23T09:32:23.512Z,1012.01
2022-10-23T09:33:23.524Z,1012.03
2022-10-23T09:34:23.534Z,1012.05
2022-10-23T09:35:23.513Z,1011.99
2022-10-23T09:36:23.510Z,1012.05
2022-10-23T09:37:23.529Z,1011.97
2022-10-23T09:38:23.531Z,1011.95
2022-10-23T09:39:23.536Z,1011.93
2022-10-23T09:40:23.522Z,1011.98
2022-10-23T09:41:23.524Z,1011.92
2022-10-23T09:42:23.531Z,1011.98
2022-10-23T09:43:23.537Z,1011.98
2022-10-23T09:44:23.523Z,1011.96
2022-10-23T09:45:23.532Z,1011.96
2022-10-23T09:46:23.516Z,1012.02
2022-10-23T09:47:23.527Z,1012.01
2022-10-23T09:48:23.522Z,1012.07
2022-10-23T09:49:23.531Z,1012.05
2022-10-23T09:50:23.518Z,1012.02
2022-10-23T09:51:23.536Z,1011.99
2022-10-23T09:52:23.527Z,1011.93
2022-10-23T09:53:23.534Z,1011.97
2022-10-23T09:54:23.521Z,1011.97
2022-10-23T09:55:23.550Z,1011.92
2022-10-23T09:56:24.780Z,1011.91
2022-10-23T09:57:23.545Z,1011.92
2022-10-23T09:58:23.529Z,1011.91
2022-10-23T09:59:23.540Z,1011.87
2022-10-23T10:00:23.519Z,1011.85
2022-10-23T10:01:23.823Z,1011.86
2022-10-23T10:02:23.568Z,1011.89
2022-10-23T10:03:23.543Z,1011.87
2022-10-23T10:04:23.521Z,1011.89
2022-10-23T10:05:23.525Z,1011.89
2022-10-23T10:06:23.521Z,1011.87
2022-10-23T10:07:23.518Z,1011.86
2022-10-23T10:08:23.535Z,1011.85
2022-10-23T10:09:23.522Z,1011.83
2022-10-23T10:10:23.522Z,1011.80
2022-10-23T10:11:23.527Z,1011.88
2022-10-23T10:12:23.517Z,1011.87
2022-10-23T10:13:23.514Z,1011.86
2022-10-23T10:14:23.517Z,1011.88
2022-10-23T10:15:23.514Z,1011.90
2022-10-23T10:16:23.518Z,1011.85
2022-10-23T10:17:23.536Z,1011.85
2022-10-23T10:18:23.524Z,1011.81
2022-10-23T10:19:23.539Z,1011.84
2022-10-23T10:20:23.512Z,1011.84
2022-10-23T10:21:23.522Z,1011.87
2022-10-23T10:22:23.515Z,1011.80
2022-10-23T10:23:23.528Z,1011.76
2022-10-23T10:24:23.522Z,1011.74
2022-10-23T10:25:23.522Z,1011.81
2022-10-23T10:26:23.569Z,1011.75
2022-10-23T10:27:23.533Z,1011.72
2022-10-23T10:28:23.522Z,1011.71
2022-10-23T10:29:23.528Z,1011.66
2022-10-23T10:30:23.518Z,1011.72
2022-10-23T10:31:23.510Z,1011.67
2022-10-23T10:32:23.521Z,1011.68
2022-10-23T10:33:23.516Z,1011.73
2022-10-23T10:34:23.514Z,1011.71
2022-10-23T10:35:23.511Z,1011.71
2022-10-23T10:36:23.556Z,1011.69
2022-10-23T10:37:23.509Z,1011.71
2022-10-23T10:38:23.518Z,1011.75
2022-10-23T10:39:23.511Z,1011.67
2022-10-23T10:40:23.528Z,1011.64
2022-10-23T10:41:23.525Z,1011.65
2022-10-23T10:42:23.516Z,1011.64
2022-10-23T10:43:23.516Z,1011.63
2022-10-23T10:44:23.503Z,1011.68
2022-10-23T10:45:23.515Z,1011.68
2022-10-23T10:46:23.520Z,1011.66
2022-10-23T10:47:23.521Z,1011.67
2022-10-23T10:48:23.519Z,1011.62
2022-10-23T10:49:23.512Z,1011.62
2022-10-23T10:50:23.516Z,1011.62
2022-10-23T10:51:23.504Z,1011.57
2022-10-23T10:52:23.504Z,1011.54
2022-10-23T10:53:23.561Z,1011.54
2022-10-23T10:54:23.535Z,1011.59
2022-10-23T10:55:23.524Z,1011.54
2022-10-23T10:56:23.509Z,1011.54
2022-10-23T10:57:23.499Z,1011.55
2022-10-23T10:58:23.502Z,1011.53
2022-10-23T10:59:23.507Z,1011.52
2022-10-23T11:00:23.540Z,1011.45
2022-10-23T11:01:23.656Z,1011.48
2022-10-23T11:02:23.607Z,1011.36
2022-10-23T11:03:23.509Z,1011.36
2022-10-23T11:04:23.497Z,1011.35
2022-10-23T11:05:23.525Z,1011.30
2022-10-23T11:06:23.518Z,1011.31
2022-10-23T11:07:23.500Z,1011.28
2022-10-23T11:08:23.500Z,1011.26
2022-10-23T11:09:23.501Z,1011.27
2022-10-23T11:10:23.513Z,1011.27
2022-10-23T11:11:23.506Z,1011.28
2022-10-23T11:12:23.500Z,1011.26
2022-10-23T11:13:23.501Z,1011.24
2022-10-23T11:14:23.507Z,1011.20
2022-10-23T11:15:23.506Z,1011.23
2022-10-23T11:16:23.522Z,1011.14
2022-10-23T11:17:23.499Z,1011.09
2022-10-23T11:18:23.499Z,1011.06
2022-10-23T11:19:23.504Z,1011.04
2022-10-23T11:20:25.780Z,1011.07
2022-10-23T11:21:23.498Z,1011.11
2022-10-23T11:22:23.500Z,1011.11
2022-10-23T11:23:23.525Z,1011.12
2022-10-23T11:24:23.488Z,1011.09
2022-10-23T11:25:23.498Z,1011.09
2022-10-23T11:26:23.489Z,1011.03
2022-10-23T11:27:23.493Z,1011.02
2022-10-23T11:28:23.495Z,1011.07
2022-10-23T11:29:23.506Z,1011.03
2022-10-23T11:30:23.503Z,1011.01
2022-10-23T11:31:23.494Z,1010.97
2022-10-23T11:32:23.590Z,1010.98
2022-10-23T11:33:23.526Z,1010.90
2022-10-23T11:34:23.488Z,1010.89
2022-10-23T11:35:23.492Z,1010.88
2022-10-23T11:36:23.510Z,1010.81
2022-10-23T11:37:23.500Z,1010.83
2022-10-23T11:38:23.506Z,1010.78
2022-10-23T11:39:23.500Z,1010.84
2022-10-23T11:40:23.490Z,1010.85
2022-10-23T11:41:26.457Z,1010.90
2022-10-23T11:42:23.504Z,1010.81
2022-10-23T11:43:23.500Z,1010.83
2022-10-23T11:44:23.492Z,1010.81
2022-10-23T11:45:23.501Z,1010.77
2022-10-23T11:46:23.502Z,1010.79
2022-10-23T11:47:23.503Z,1010.75
2022-10-23T11:48:23.508Z,1010.77
2022-10-23T11:49:23.489Z,1010.78
2022-10-23T11:50:23.508Z,1010.77
2022-10-23T11:51:23.510Z,1010.74
2022-10-23T11:52:23.501Z,1010.73
2022-10-23T11:53:23.831Z,1010.67
2022-10-23T11:54:23.494Z,1010.62
2022-10-23T11:55:23.506Z,1010.62
2022-10-23T11:56:23.502Z,1010.56
2022-10-23T11:57:23.539Z,1010.58
2022-10-23T11:58:23.496Z,1010.50
2022-10-23T11:59:23.495Z,1010.52
2022-10-23T12:00:23.492Z,1010.55
2022-10-23T12:01:23.528Z,1010.50
2022-10-23T12:02:23.559Z,1010.54
2022-10-23T12:03:23.530Z,1010.59
2022-10-23T12:04:23.518Z,1010.58
2022-10-23T12:05:23.515Z,1010.57
2022-10-23T12:06:23.500Z,1010.55
2022-10-23T12:07:23.490Z,1010.56
2022-10-23T12:08:23.492Z,1010.51